createdAt,value
2018-12-21T00:01:24.278Z,5.67
2018-12-21T00:03:56.713Z,3.00
2018-12-21T00:06:34.408Z,5.00
2018-12-21T00:09:14.197Z,3.00
2018-12-21T00:11:50.936Z,5.00
2018-12-21T00:14:24.624Z,3.00
2018-12-21T00:17:02.314Z,3.00
2018-12-21T00:19:35.669Z,1.00
2018-12-21T00:22:10.391Z,3.00
2018-12-21T00:24:45.125Z,1.67
2018-12-21T00:27:18.954Z,1.67
2018-12-21T00:29:50.540Z,2.33
2018-12-21T00:32:29.531Z,4.00
2018-12-21T00:35:06.973Z,2.33
2018-12-21T00:37:45.976Z,1.67
2018-12-21T00:40:25.929Z,2.33
2018-12-21T00:43:10.237Z,1.67
2018-12-21T00:45:46.703Z,3.00
2018-12-21T00:48:26.551Z,1.00
2018-12-21T00:51:00.378Z,1.00
2018-12-21T00:53:35.904Z,3.00
2018-12-21T00:56:11.511Z,3.00
2018-12-21T00:58:46.175Z,3.00
2018-12-21T01:01:20.054Z,3.00
2018-12-21T01:03:54.307Z,2.33
2018-12-21T01:06:31.277Z,3.00
2018-12-21T01:09:08.685Z,2.33
2018-12-21T01:11:42.095Z,3.00
2018-12-21T01:14:16.932Z,1.00
2018-12-21T01:16:51.929Z,2.33
2018-12-21T01:19:27.962Z,3.00
2018-12-21T01:22:04.310Z,2.33
2018-12-21T01:24:37.733Z,1.00
2018-12-21T01:27:15.501Z,1.00
2018-12-21T01:29:53.423Z,1.00
2018-12-21T01:32:27.983Z,3.00
2018-12-21T01:35:02.353Z,1.00
2018-12-21T01:37:36.127Z,3.00
2018-12-21T01:40:11.060Z,3.00
2018-12-21T01:42:58.858Z,1.67
2018-12-21T01:45:32.921Z,1.00
2018-12-21T01:48:07.231Z,1.00
2018-12-21T01:50:44.274Z,3.00
2018-12-21T01:53:19.385Z,1.67
2018-12-21T01:55:54.144Z,1.00
2018-12-21T01:58:29.328Z,3.00
2018-12-21T02:01:03.127Z,3.00
2018-12-21T02:03:36.042Z,3.00
2018-12-21T02:06:09.581Z,3.00
2018-12-21T02:08:46.464Z,1.00
2018-12-21T02:11:25.023Z,2.33
2018-12-21T02:14:04.455Z,1.00
2018-12-21T02:16:43.960Z,1.00
2018-12-21T02:19:19.368Z,2.33
2018-12-21T02:21:59.908Z,1.00
2018-12-21T02:24:36.323Z,1.00
2018-12-21T02:27:10.887Z,3.00
2018-12-21T02:29:49.703Z,1.00
2018-12-21T02:32:24.009Z,2.50
2018-12-21T02:34:59.854Z,1.00
2018-12-21T02:37:35.451Z,3.00
2018-12-21T02:40:16.891Z,1.00
2018-12-21T02:42:51.394Z,1.00
2018-12-21T02:45:29.301Z,1.00
2018-12-21T02:48:02.560Z,1.00
2018-12-21T02:50:38.082Z,3.00
2018-12-21T02:53:11.410Z,1.00
2018-12-21T02:55:46.926Z,2.33
2018-12-21T02:58:22.830Z,1.00
2018-12-21T03:00:57.342Z,2.33
2018-12-21T03:03:30.394Z,1.67
2018-12-21T03:06:02.961Z,2.33
2018-12-21T03:08:41.422Z,2.33
2018-12-21T03:11:14.684Z,1.67
2018-12-21T03:13:49.276Z,2.20
2018-12-21T03:16:24.809Z,1.00
2018-12-21T03:18:57.576Z,1.67
2018-12-21T03:21:30.892Z,1.00
2018-12-21T03:24:04.176Z,1.00
2018-12-21T03:26:39.976Z,1.00
2018-12-21T03:29:14.904Z,3.00
2018-12-21T03:31:49.276Z,1.00
2018-12-21T03:34:26.058Z,2.20
2018-12-21T03:37:03.185Z,1.00
2018-12-21T03:39:35.822Z,1.00
2018-12-21T03:42:13.597Z,1.00
2018-12-21T03:44:47.782Z,1.00
2018-12-21T03:47:22.106Z,1.00
2018-12-21T03:49:59.663Z,1.00
2018-12-21T03:52:33.742Z,1.00
2018-12-21T03:55:06.980Z,1.67
2018-12-21T03:57:40.876Z,1.00
2018-12-21T04:02:55.441Z,1.00
2018-12-21T04:05:28.002Z,1.00
2018-12-21T04:08:03.859Z,1.00
2018-12-21T04:10:36.946Z,2.33
2018-12-21T04:13:10.127Z,1.67
2018-12-21T04:15:44.027Z,2.33
2018-12-21T04:18:17.579Z,1.00
2018-12-21T04:20:56.916Z,1.40
2018-12-21T04:23:34.473Z,3.00
2018-12-21T04:26:10.976Z,3.00
2018-12-21T04:28:43.477Z,1.00
2018-12-21T04:31:19.746Z,1.00
2018-12-21T04:33:58.042Z,3.00
2018-12-21T04:36:31.622Z,1.00
2018-12-21T04:39:06.226Z,3.00
2018-12-21T04:41:41.560Z,3.00
2018-12-21T04:44:18.446Z,3.00
2018-12-21T04:46:55.319Z,3.00
2018-12-21T04:49:32.356Z,2.33
2018-12-21T04:52:05.091Z,3.00
2018-12-21T04:54:40.327Z,3.00
2018-12-21T04:57:14.221Z,3.00
2018-12-21T04:59:53.482Z,3.00
2018-12-21T05:02:30.335Z,2.33
2018-12-21T05:05:06.108Z,3.00
2018-12-21T05:07:40.422Z,2.33
2018-12-21T05:10:12.038Z,2.33
2018-12-21T05:12:49.580Z,2.33
2018-12-21T05:15:26.616Z,1.00
2018-12-21T05:17:59.567Z,2.33
2018-12-21T05:20:34.898Z,3.00
2018-12-21T05:23:09.467Z,3.00
2018-12-21T05:25:44.641Z,1.00
2018-12-21T05:28:18.280Z,1.00
2018-12-21T05:30:52.842Z,1.00
2018-12-21T05:33:27.647Z,1.00
2018-12-21T05:38:42.219Z,1.00
2018-12-21T05:41:16.063Z,1.67
2018-12-21T05:43:50.347Z,1.00
2018-12-21T05:46:24.072Z,3.00
2018-12-21T05:49:00.159Z,1.00
2018-12-21T05:51:34.669Z,3.00
2018-12-21T05:54:13.105Z,1.00
2018-12-21T05:56:47.566Z,2.33
2018-12-21T05:59:20.091Z,3.00
2018-12-21T06:01:57.439Z,5.00
2018-12-21T06:04:34.303Z,3.00
2018-12-21T06:07:08.238Z,1.00
2018-12-21T06:09:41.962Z,2.33
2018-12-21T06:12:16.203Z,2.33
2018-12-21T06:14:47.713Z,3.00
2018-12-21T06:17:20.442Z,1.00
2018-12-21T06:19:52.541Z,3.00
2018-12-21T06:22:25.685Z,1.00
2018-12-21T06:25:03.175Z,1.00
2018-12-21T06:27:36.250Z,1.00
2018-12-21T06:32:47.218Z,3.00
2018-12-21T06:35:20.764Z,3.00
2018-12-21T06:37:53.540Z,3.67
2018-12-21T06:40:33.302Z,3.00
2018-12-21T06:43:06.149Z,3.00
2018-12-21T06:45:38.933Z,3.00
2018-12-21T06:48:11.172Z,1.00
2018-12-21T06:50:47.427Z,5.00
2018-12-21T06:53:19.031Z,5.00
2018-12-21T06:55:50.614Z,3.00
2018-12-21T06:58:23.883Z,3.67
2018-12-21T07:00:55.939Z,3.00
2018-12-21T07:03:29.621Z,3.00
2018-12-21T07:06:08.300Z,2.33
2018-12-21T07:08:41.238Z,3.67
2018-12-21T07:11:19.573Z,2.33
2018-12-21T07:13:52.557Z,3.00
2018-12-21T07:16:26.030Z,3.00
2018-12-21T07:19:02.244Z,1.00
2018-12-21T07:21:36.045Z,3.00
2018-12-21T07:24:10.351Z,3.00
2018-12-21T07:26:44.382Z,2.00
2018-12-21T07:29:16.672Z,1.00
2018-12-21T07:31:49.624Z,3.00
2018-12-21T07:34:25.904Z,1.00
2018-12-21T07:37:01.332Z,1.00
2018-12-21T07:39:42.292Z,3.00
2018-12-21T07:42:21.252Z,1.00
2018-12-21T07:44:54.384Z,1.00
2018-12-21T07:47:34.067Z,1.00
2018-12-21T07:50:09.563Z,2.33
2018-12-21T07:52:44.012Z,1.00
2018-12-21T07:55:19.102Z,3.00
2018-12-21T07:58:01.896Z,3.00
2018-12-21T08:00:37.479Z,1.00
2018-12-21T08:03:13.412Z,3.00
2018-12-21T08:05:51.945Z,3.00
2018-12-21T08:08:29.452Z,3.00
2018-12-21T08:11:06.420Z,3.00
2018-12-21T08:13:40.668Z,3.00
2018-12-21T08:16:27.431Z,2.00
2018-12-21T08:19:01.162Z,3.00
2018-12-21T08:21:34.660Z,2.33
2018-12-21T08:24:07.988Z,3.00
2018-12-21T08:26:39.937Z,3.00
2018-12-21T08:29:19.281Z,1.00
2018-12-21T08:31:52.246Z,3.00
2018-12-21T08:34:27.081Z,3.67
2018-12-21T08:37:01.206Z,3.00
2018-12-21T08:39:34.888Z,3.00
2018-12-21T08:42:11.184Z,1.00
2018-12-21T08:44:46.820Z,3.00
2018-12-21T08:47:25.276Z,1.80
2018-12-21T08:50:02.566Z,1.50
2018-12-21T08:52:38.682Z,3.00
2018-12-21T08:55:12.127Z,2.33
2018-12-21T08:57:48.367Z,4.50
2018-12-21T09:00:26.146Z,1.00
2018-12-21T09:03:00.868Z,2.33
2018-12-21T09:05:35.854Z,2.33
2018-12-21T09:08:09.303Z,2.33
2018-12-21T09:10:47.421Z,1.00
2018-12-21T09:13:24.637Z,3.00
2018-12-21T09:15:58.851Z,1.67
2018-12-21T09:18:36.827Z,3.00
2018-12-21T09:21:13.399Z,3.00
2018-12-21T09:23:45.425Z,2.60
2018-12-21T09:26:19.843Z,2.33
2018-12-21T09:28:53.875Z,1.00
2018-12-21T09:31:27.463Z,3.00
2018-12-21T09:34:08.554Z,1.00
2018-12-21T09:36:44.231Z,1.00
2018-12-21T09:39:22.728Z,1.00
2018-12-21T09:42:02.210Z,1.00
2018-12-21T09:44:38.124Z,1.00
2018-12-21T09:47:29.873Z,1.00
2018-12-21T09:50:09.422Z,1.67
2018-12-21T09:52:46.572Z,3.00
2018-12-21T09:55:24.065Z,3.00
2018-12-21T09:58:00.607Z,3.00
2018-12-21T10:00:37.888Z,1.67
2018-12-21T10:03:12.748Z,1.00
2018-12-21T10:05:45.698Z,0.00
2018-12-21T10:08:20.420Z,3.00
2018-12-21T10:10:54.642Z,1.00
2018-12-21T10:13:32.028Z,1.00
2018-12-21T10:16:03.577Z,1.00
2018-12-21T10:18:39.372Z,1.00
2018-12-21T10:21:21.199Z,1.00
2018-12-21T10:23:58.305Z,1.00
2018-12-21T10:26:41.828Z,1.00
2018-12-21T10:29:17.133Z,1.00
2018-12-21T10:31:54.318Z,0.67
2018-12-21T10:34:30.751Z,1.00
2018-12-21T10:37:06.671Z,0.67
2018-12-21T10:39:44.809Z,1.00
2018-12-21T10:42:18.618Z,1.00
2018-12-21T10:44:52.059Z,1.00
2018-12-21T10:47:27.078Z,0.33
2018-12-21T10:50:00.179Z,1.00
2018-12-21T10:52:40.707Z,0.00
2018-12-21T10:55:16.199Z,0.00
2018-12-21T10:57:51.139Z,0.00
2018-12-21T11:00:27.900Z,0.00
2018-12-21T11:03:04.293Z,0.20
2018-12-21T11:05:41.221Z,1.00
2018-12-21T11:08:21.756Z,0.00
2018-12-21T11:10:59.469Z,0.00
2018-12-21T11:13:41.897Z,0.00
2018-12-21T11:16:17.013Z,0.00
2018-12-21T11:18:54.504Z,0.00
2018-12-21T11:21:27.891Z,0.00
2018-12-21T11:24:04.246Z,0.00
2018-12-21T11:26:37.741Z,0.00
2018-12-21T11:29:16.140Z,0.00
2018-12-21T11:31:50.176Z,0.00
2018-12-21T11:34:23.574Z,0.00
2018-12-21T11:36:58.707Z,0.00
2018-12-21T11:39:32.562Z,0.00
2018-12-21T11:42:07.736Z,0.00
2018-12-21T11:44:50.937Z,0.00
2018-12-21T11:47:25.326Z,0.00
2018-12-21T11:50:00.335Z,0.00
2018-12-21T11:52:35.356Z,0.00
2018-12-21T11:55:10.550Z,0.00
2018-12-21T11:57:50.797Z,0.00
2018-12-21T12:00:27.785Z,0.00
2018-12-21T12:03:05.493Z,0.00
2018-12-21T12:05:50.424Z,0.00
2018-12-21T12:08:26.530Z,0.00
2018-12-21T12:11:01.430Z,0.00
2018-12-21T12:13:40.944Z,0.00
2018-12-21T12:16:17.885Z,0.00
2018-12-21T12:18:54.725Z,0.00
2018-12-21T12:21:32.134Z,0.00
2018-12-21T12:24:13.062Z,0.00
2018-12-21T12:26:50.355Z,0.00
2018-12-21T12:29:26.949Z,0.00
2018-12-21T12:32:05.841Z,0.00
2018-12-21T12:34:41.955Z,0.00
2018-12-21T12:37:18.280Z,0.00
2018-12-21T12:39:50.472Z,0.00
2018-12-21T12:42:40.933Z,0.00
2018-12-21T12:45:26.941Z,0.00
2018-12-21T12:48:06.524Z,0.00
2018-12-21T12:50:42.282Z,0.00
2018-12-21T12:53:20.290Z,0.00
2018-12-21T12:58:41.792Z,0.00
2018-12-21T13:01:22.306Z,0.00
2018-12-21T13:03:58.154Z,0.00
2018-12-21T13:06:34.625Z,0.00
2018-12-21T13:09:13.948Z,0.00
2018-12-21T13:11:48.766Z,0.00
2018-12-21T13:14:23.417Z,1.00
2018-12-21T13:16:59.162Z,0.00
2018-12-21T13:19:36.839Z,0.00
2018-12-21T13:22:13.700Z,0.00
2018-12-21T13:24:59.322Z,0.00
2018-12-21T13:30:38.585Z,0.00
2018-12-21T13:33:15.772Z,0.00
2018-12-21T13:35:57.654Z,0.00
2018-12-21T13:38:33.650Z,0.00
2018-12-21T13:41:09.853Z,0.00
2018-12-21T13:43:48.141Z,0.00
2018-12-21T13:46:31.604Z,0.00
2018-12-21T13:49:09.161Z,0.00
2018-12-21T13:51:48.617Z,0.00
2018-12-21T13:54:23.415Z,0.00
2018-12-21T13:56:57.328Z,0.00
2018-12-21T13:59:32.866Z,1.00
2018-12-21T14:02:09.886Z,0.00
2018-12-21T14:04:46.363Z,3.00
2018-12-21T14:07:29.265Z,5.00
2018-12-21T14:10:14.944Z,0.00
2018-12-21T14:12:54.063Z,0.00
2018-12-21T14:15:32.029Z,0.33
2018-12-21T14:18:08.236Z,3.00
2018-12-21T14:20:48.748Z,3.00
2018-12-21T14:23:28.576Z,0.00
2018-12-21T14:26:03.533Z,0.00
2018-12-21T14:28:38.784Z,3.00
2018-12-21T14:31:15.362Z,1.00
2018-12-21T14:33:53.727Z,0.00
2018-12-21T14:36:27.946Z,0.00
2018-12-21T14:39:03.257Z,0.33
2018-12-21T14:41:39.497Z,0.00
2018-12-21T14:44:15.102Z,1.00
2018-12-21T14:46:48.082Z,0.00
2018-12-21T14:49:23.014Z,0.00
2018-12-21T14:51:55.129Z,0.00
2018-12-21T14:54:29.113Z,0.00
2018-12-21T14:57:06.586Z,3.00
2018-12-21T14:59:42.681Z,0.00
2018-12-21T15:02:15.565Z,3.00
2018-12-21T15:04:49.980Z,0.00
2018-12-21T15:07:22.396Z,0.00
2018-12-21T15:09:58.505Z,0.33
2018-12-21T15:12:38.261Z,0.00
2018-12-21T15:15:26.286Z,1.00
2018-12-21T15:18:00.379Z,0.00
2018-12-21T15:20:40.112Z,0.00
2018-12-21T15:23:17.211Z,3.00
2018-12-21T15:26:00.335Z,1.00
2018-12-21T15:28:38.060Z,0.00
2018-12-21T15:31:19.940Z,0.67
2018-12-21T15:33:56.746Z,0.00
2018-12-21T15:36:34.121Z,1.00
2018-12-21T15:39:14.900Z,1.00
2018-12-21T15:42:00.491Z,0.00
2018-12-21T15:44:36.559Z,5.00
2018-12-21T15:47:13.833Z,3.00
2018-12-21T15:49:47.851Z,5.00
2018-12-21T15:52:21.765Z,3.00
2018-12-21T15:55:01.131Z,0.00
2018-12-21T15:57:33.317Z,1.00
2018-12-21T16:00:18.911Z,0.00
2018-12-21T16:02:59.922Z,1.00
2018-12-21T16:08:43.291Z,0.00
2018-12-21T16:11:20.556Z,0.33
2018-12-21T16:14:00.287Z,0.00
2018-12-21T16:16:38.188Z,0.00
2018-12-21T16:19:16.472Z,0.00
2018-12-21T16:21:50.240Z,0.00
2018-12-21T16:24:23.945Z,0.00
2018-12-21T16:26:58.468Z,0.00
2018-12-21T16:29:35.901Z,0.00
2018-12-21T16:32:09.965Z,0.33
2018-12-21T16:34:44.434Z,0.67
2018-12-21T16:37:36.293Z,0.00
2018-12-21T16:40:15.478Z,0.00
2018-12-21T16:42:55.406Z,0.00
2018-12-21T16:45:34.833Z,0.00
2018-12-21T16:48:09.688Z,0.00
2018-12-21T16:50:44.687Z,0.00
2018-12-21T16:53:19.761Z,0.67
2018-12-21T16:55:59.895Z,0.00
2018-12-21T16:58:39.034Z,0.00
2018-12-21T17:01:11.641Z,0.00
2018-12-21T17:03:47.124Z,0.00
2018-12-21T17:06:19.076Z,0.67
2018-12-21T17:08:55.968Z,0.00
2018-12-21T17:11:29.865Z,0.00
2018-12-21T17:14:10.001Z,0.00
2018-12-21T17:16:48.321Z,0.00
2018-12-21T17:19:28.251Z,0.00
2018-12-21T17:22:08.783Z,0.00
2018-12-21T17:24:42.457Z,0.00
2018-12-21T17:30:12.855Z,0.67
2018-12-21T17:35:41.760Z,0.00
2018-12-21T17:38:14.408Z,0.00
2018-12-21T17:40:52.243Z,0.00
2018-12-21T17:43:29.499Z,0.00
2018-12-21T17:46:10.907Z,0.33
2018-12-21T17:48:43.966Z,1.00
2018-12-21T17:51:20.248Z,1.00
2018-12-21T17:53:55.943Z,2.33
2018-12-21T17:56:33.674Z,0.00
2018-12-21T17:59:10.538Z,1.00
2018-12-21T18:01:49.487Z,0.00
2018-12-21T18:04:29.984Z,5.00
2018-12-21T18:07:07.957Z,4.50
2018-12-21T18:09:42.723Z,1.00
2018-12-21T18:12:15.885Z,3.00
2018-12-21T18:14:51.235Z,2.33
2018-12-21T18:17:24.701Z,3.00
2018-12-21T18:20:00.913Z,2.60
2018-12-21T18:22:34.234Z,1.00
2018-12-21T18:25:16.938Z,1.00
2018-12-21T18:27:55.548Z,1.00
2018-12-21T18:30:47.894Z,1.00
2018-12-21T18:33:25.489Z,3.00
2018-12-21T18:36:01.564Z,5.00
2018-12-21T18:38:42.693Z,3.00
2018-12-21T18:41:17.797Z,1.00
2018-12-21T18:43:53.914Z,5.00
2018-12-21T18:46:29.754Z,5.00
2018-12-21T18:49:04.237Z,1.00
2018-12-21T18:51:39.434Z,0.00
2018-12-21T18:54:14.086Z,1.00
2018-12-21T18:57:00.573Z,0.00
2018-12-21T18:59:37.111Z,0.00
2018-12-21T19:02:12.717Z,0.00
2018-12-21T19:04:46.304Z,0.00
2018-12-21T19:07:23.835Z,0.00
2018-12-21T19:10:04.794Z,0.33
2018-12-21T19:12:38.015Z,0.33
2018-12-21T19:15:18.910Z,0.00
2018-12-21T19:17:57.503Z,0.00
2018-12-21T19:20:40.022Z,1.00
2018-12-21T19:23:12.862Z,0.00
2018-12-21T19:25:51.826Z,0.00
2018-12-21T19:28:27.922Z,0.33
2018-12-21T19:31:04.018Z,0.00
2018-12-21T19:33:41.904Z,0.00
2018-12-21T19:36:17.333Z,1.00
2018-12-21T19:38:57.028Z,0.00
2018-12-21T19:41:32.407Z,0.67
2018-12-21T19:44:04.251Z,0.00
2018-12-21T19:46:39.054Z,0.67
2018-12-21T19:49:13.646Z,0.33
2018-12-21T19:51:55.281Z,0.33
2018-12-21T19:54:29.021Z,0.00
2018-12-21T19:57:18.386Z,0.00
2018-12-21T19:59:53.835Z,0.00
2018-12-21T20:02:35.535Z,0.00
2018-12-21T20:05:11.549Z,0.00
2018-12-21T20:07:45.503Z,0.33
2018-12-21T20:10:21.402Z,0.33
2018-12-21T20:13:03.776Z,0.00
2018-12-21T20:15:40.805Z,0.00
2018-12-21T20:21:31.447Z,1.00
2018-12-21T20:24:11.296Z,0.80
2018-12-21T20:26:50.683Z,0.00
2018-12-21T20:29:26.254Z,0.00
2018-12-21T20:32:02.237Z,0.33
2018-12-21T20:34:38.904Z,0.00
2018-12-21T20:37:17.311Z,0.00
2018-12-21T20:39:51.404Z,0.00
2018-12-21T20:42:31.934Z,0.00
2018-12-21T20:47:50.448Z,0.00
2018-12-21T20:50:25.532Z,0.00
2018-12-21T20:53:00.495Z,0.00
2018-12-21T20:55:36.538Z,0.00
2018-12-21T20:58:19.630Z,0.00
2018-12-21T21:01:00.295Z,0.00
2018-12-21T21:03:39.251Z,0.00
2018-12-21T21:06:21.344Z,0.00
2018-12-21T21:08:53.959Z,0.00
2018-12-21T21:11:29.515Z,0.00
2018-12-21T21:14:08.567Z,0.00
2018-12-21T21:16:40.819Z,0.00
2018-12-21T21:19:16.772Z,0.00
2018-12-21T21:21:53.582Z,0.00
2018-12-21T21:24:30.620Z,0.00
2018-12-21T21:27:10.724Z,0.00
2018-12-21T21:29:45.197Z,1.00
2018-12-21T21:32:25.057Z,0.00
2018-12-21T21:34:59.655Z,0.00
2018-12-21T21:37:33.303Z,1.00
2018-12-21T21:40:09.449Z,1.00
2018-12-21T21:42:43.299Z,1.00
2018-12-21T21:45:19.702Z,1.00
2018-12-21T21:47:55.195Z,1.00
2018-12-21T21:50:29.235Z,1.00
2018-12-21T21:53:07.898Z,0.00
2018-12-21T21:55:42.562Z,1.00
2018-12-21T21:58:24.078Z,1.00
2018-12-21T22:00:56.972Z,0.00
2018-12-21T22:03:31.427Z,1.00
2018-12-21T22:06:07.207Z,1.00
2018-12-21T22:08:41.092Z,1.00
2018-12-21T22:11:13.591Z,0.67
2018-12-21T22:13:48.247Z,0.00
2018-12-21T22:16:20.667Z,0.00
2018-12-21T22:18:53.218Z,0.00
2018-12-21T22:21:27.900Z,0.00
2018-12-21T22:24:01.726Z,1.00
2018-12-21T22:26:36.752Z,0.00
2018-12-21T22:29:10.476Z,0.80
2018-12-21T22:31:46.477Z,0.00
2018-12-21T22:34:19.672Z,0.00
2018-12-21T22:36:54.619Z,1.00
2018-12-21T22:39:27.974Z,0.00
2018-12-21T22:42:03.904Z,0.00
2018-12-21T22:44:41.470Z,0.00
2018-12-21T22:47:15.452Z,0.00
2018-12-21T22:49:53.557Z,0.00
2018-12-21T22:52:30.438Z,0.00
2018-12-21T22:55:07.751Z,0.00
2018-12-21T22:57:56.167Z,0.00
2018-12-21T23:00:29.648Z,1.00
2018-12-21T23:03:05.317Z,1.00
2018-12-21T23:05:41.636Z,0.00
2018-12-21T23:08:15.622Z,1.00
2018-12-21T23:10:49.039Z,0.20
2018-12-21T23:13:23.651Z,0.33
2018-12-21T23:15:58.537Z,1.67
2018-12-21T23:18:35.846Z,1.00
2018-12-21T23:21:13.031Z,0.67
2018-12-21T23:23:47.328Z,1.00
2018-12-21T23:29:02.948Z,1.00
2018-12-21T23:31:40.313Z,1.00
2018-12-21T23:34:22.003Z,0.00
2018-12-21T23:36:57.813Z,1.00
2018-12-21T23:39:30.800Z,0.67
2018-12-21T23:42:04.689Z,0.00
2018-12-21T23:44:38.042Z,1.00
2018-12-21T23:47:12.335Z,0.67
2018-12-21T23:49:49.837Z,0.33
2018-12-21T23:52:34.957Z,0.00
2018-12-21T23:55:17.985Z,0.00
2018-12-21T23:57:57.108Z,0.00
